sensor_id;sensor_type;location;lat;lon;timestamp;P1;durP1;ratioP1;P2;durP2;ratioP2
6185;SDS011;3126;52.738;8.316;2023-04-25T00:03:19;9.70;;;3.00;;
6185;SDS011;3126;52.738;8.316;2023-04-25T00:08:21;10.15;;;2.60;;
6185;SDS011;3126;52.738;8.316;2023-04-25T00:13:22;10.95;;;3.25;;
6185;SDS011;3126;52.738;8.316;2023-04-25T00:18:23;17.60;;;4.10;;
6185;SDS011;3126;52.738;8.316;2023-04-25T00:23:24;14.73;;;4.93;;
6185;SDS011;3126;52.738;8.316;2023-04-25T00:28:26;17.42;;;3.80;;
6185;SDS011;3126;52.738;8.316;2023-04-25T00:33:27;13.40;;;3.75;;
6185;SDS011;3126;52.738;8.316;2023-04-25T00:38:28;17.65;;;4.22;;
6185;SDS011;3126;52.738;8.316;2023-04-25T00:43:29;14.68;;;4.35;;
6185;SDS011;3126;52.738;8.316;2023-04-25T00:48:30;17.17;;;3.90;;
6185;SDS011;3126;52.738;8.316;2023-04-25T00:53:32;13.38;;;3.35;;
6185;SDS011;3126;52.738;8.316;2023-04-25T00:58:33;12.45;;;3.40;;
6185;SDS011;3126;52.738;8.316;2023-04-25T01:03:34;20.02;;;4.72;;
6185;SDS011;3126;52.738;8.316;2023-04-25T01:08:40;17.52;;;4.10;;
6185;SDS011;3126;52.738;8.316;2023-04-25T01:13:41;16.15;;;4.10;;
6185;SDS011;3126;52.738;8.316;2023-04-25T01:18:42;14.68;;;3.85;;
6185;SDS011;3126;52.738;8.316;2023-04-25T01:23:44;9.32;;;3.65;;
6185;SDS011;3126;52.738;8.316;2023-04-25T01:28:45;18.80;;;3.67;;
6185;SDS011;3126;52.738;8.316;2023-04-25T01:33:47;9.50;;;2.42;;
6185;SDS011;3126;52.738;8.316;2023-04-25T01:38:48;19.38;;;3.20;;
6185;SDS011;3126;52.738;8.316;2023-04-25T01:43:49;18.77;;;4.15;;
6185;SDS011;3126;52.738;8.316;2023-04-25T01:48:49;15.07;;;3.55;;
6185;SDS011;3126;52.738;8.316;2023-04-25T01:53:50;10.32;;;3.22;;
6185;SDS011;3126;52.738;8.316;2023-04-25T01:58:52;16.35;;;4.45;;
6185;SDS011;3126;52.738;8.316;2023-04-25T02:03:53;13.38;;;3.42;;
6185;SDS011;3126;52.738;8.316;2023-04-25T02:08:54;18.05;;;3.30;;
6185;SDS011;3126;52.738;8.316;2023-04-25T02:13:55;17.23;;;4.32;;
6185;SDS011;3126;52.738;8.316;2023-04-25T02:18:56;13.52;;;3.83;;
6185;SDS011;3126;52.738;8.316;2023-04-25T02:23:57;12.73;;;3.83;;
6185;SDS011;3126;52.738;8.316;2023-04-25T02:28:58;15.07;;;3.58;;
6185;SDS011;3126;52.738;8.316;2023-04-25T02:33:59;11.88;;;3.97;;
6185;SDS011;3126;52.738;8.316;2023-04-25T02:39:00;10.73;;;2.97;;
6185;SDS011;3126;52.738;8.316;2023-04-25T02:44:02;13.70;;;4.18;;
6185;SDS011;3126;52.738;8.316;2023-04-25T02:49:03;15.23;;;3.78;;
6185;SDS011;3126;52.738;8.316;2023-04-25T02:54:05;12.25;;;3.30;;
6185;SDS011;3126;52.738;8.316;2023-04-25T02:59:06;13.00;;;3.13;;
6185;SDS011;3126;52.738;8.316;2023-04-25T03:04:07;16.33;;;4.32;;
6185;SDS011;3126;52.738;8.316;2023-04-25T03:09:08;11.05;;;3.60;;
6185;SDS011;3126;52.738;8.316;2023-04-25T03:14:09;12.45;;;3.60;;
6185;SDS011;3126;52.738;8.316;2023-04-25T03:19:10;11.98;;;3.33;;
6185;SDS011;3126;52.738;8.316;2023-04-25T03:24:11;10.60;;;3.50;;
6185;SDS011;3126;52.738;8.316;2023-04-25T03:29:12;9.95;;;3.30;;
6185;SDS011;3126;52.738;8.316;2023-04-25T03:34:13;13.65;;;2.85;;
6185;SDS011;3126;52.738;8.316;2023-04-25T03:39:14;14.40;;;2.78;;
6185;SDS011;3126;52.738;8.316;2023-04-25T03:44:15;15.63;;;3.72;;
6185;SDS011;3126;52.738;8.316;2023-04-25T03:49:16;13.00;;;3.00;;
6185;SDS011;3126;52.738;8.316;2023-04-25T03:54:17;15.10;;;3.65;;
6185;SDS011;3126;52.738;8.316;2023-04-25T03:59:18;10.07;;;3.00;;
6185;SDS011;3126;52.738;8.316;2023-04-25T04:04:19;14.23;;;4.45;;
6185;SDS011;3126;52.738;8.316;2023-04-25T04:09:20;14.38;;;3.75;;
6185;SDS011;3126;52.738;8.316;2023-04-25T04:14:21;11.23;;;3.00;;
6185;SDS011;3126;52.738;8.316;2023-04-25T04:19:22;14.10;;;3.75;;
6185;SDS011;3126;52.738;8.316;2023-04-25T04:24:23;16.40;;;3.80;;
6185;SDS011;3126;52.738;8.316;2023-04-25T04:29:24;14.77;;;3.33;;
6185;SDS011;3126;52.738;8.316;2023-04-25T04:34:25;13.15;;;3.33;;
6185;SDS011;3126;52.738;8.316;2023-04-25T04:39:27;12.40;;;3.58;;
6185;SDS011;3126;52.738;8.316;2023-04-25T04:44:28;12.80;;;2.85;;
6185;SDS011;3126;52.738;8.316;2023-04-25T04:49:29;12.32;;;3.63;;
6185;SDS011;3126;52.738;8.316;2023-04-25T04:54:30;8.48;;;3.03;;
6185;SDS011;3126;52.738;8.316;2023-04-25T04:59:31;7.97;;;2.95;;
6185;SDS011;3126;52.738;8.316;2023-04-25T05:04:32;13.40;;;2.33;;
6185;SDS011;3126;52.738;8.316;2023-04-25T05:09:33;6.10;;;2.00;;
6185;SDS011;3126;52.738;8.316;2023-04-25T05:14:34;9.73;;;2.88;;
6185;SDS011;3126;52.738;8.316;2023-04-25T05:19:35;10.15;;;3.65;;
6185;SDS011;3126;52.738;8.316;2023-04-25T05:24:36;15.45;;;3.28;;
6185;SDS011;3126;52.738;8.316;2023-04-25T05:29:37;6.93;;;3.03;;
6185;SDS011;3126;52.738;8.316;2023-04-25T05:34:38;9.55;;;2.63;;
6185;SDS011;3126;52.738;8.316;2023-04-25T05:39:39;5.35;;;2.95;;
6185;SDS011;3126;52.738;8.316;2023-04-25T05:44:40;8.00;;;2.35;;
6185;SDS011;3126;52.738;8.316;2023-04-25T05:49:41;7.78;;;2.83;;
6185;SDS011;3126;52.738;8.316;2023-04-25T05:54:42;6.70;;;2.50;;
6185;SDS011;3126;52.738;8.316;2023-04-25T05:59:43;7.57;;;2.05;;
6185;SDS011;3126;52.738;8.316;2023-04-25T06:04:44;7.50;;;1.60;;
6185;SDS011;3126;52.738;8.316;2023-04-25T06:09:45;5.63;;;2.40;;
6185;SDS011;3126;52.738;8.316;2023-04-25T06:14:46;6.05;;;1.70;;
6185;SDS011;3126;52.738;8.316;2023-04-25T06:19:48;9.43;;;2.15;;
6185;SDS011;3126;52.738;8.316;2023-04-25T06:24:48;5.63;;;1.40;;
6185;SDS011;3126;52.738;8.316;2023-04-25T06:29:49;7.43;;;2.15;;
6185;SDS011;3126;52.738;8.316;2023-04-25T06:34:50;3.38;;;1.15;;
6185;SDS011;3126;52.738;8.316;2023-04-25T06:39:51;2.25;;;1.05;;
6185;SDS011;3126;52.738;8.316;2023-04-25T06:44:52;3.35;;;1.45;;
6185;SDS011;3126;52.738;8.316;2023-04-25T06:49:53;10.90;;;2.20;;
6185;SDS011;3126;52.738;8.316;2023-04-25T06:54:54;7.55;;;2.90;;
6185;SDS011;3126;52.738;8.316;2023-04-25T06:59:55;6.57;;;1.65;;
6185;SDS011;3126;52.738;8.316;2023-04-25T07:04:56;8.63;;;2.40;;
6185;SDS011;3126;52.738;8.316;2023-04-25T07:09:59;5.00;;;1.45;;
6185;SDS011;3126;52.738;8.316;2023-04-25T07:15:00;4.97;;;2.25;;
6185;SDS011;3126;52.738;8.316;2023-04-25T07:20:05;7.30;;;1.85;;
6185;SDS011;3126;52.738;8.316;2023-04-25T07:25:07;7.75;;;1.92;;
6185;SDS011;3126;52.738;8.316;2023-04-25T07:30:09;9.20;;;1.92;;
6185;SDS011;3126;52.738;8.316;2023-04-25T07:35:10;10.00;;;2.00;;
6185;SDS011;3126;52.738;8.316;2023-04-25T07:40:11;6.57;;;2.08;;
6185;SDS011;3126;52.738;8.316;2023-04-25T07:45:12;6.70;;;2.20;;
6185;SDS011;3126;52.738;8.316;2023-04-25T07:50:13;6.47;;;1.20;;
6185;SDS011;3126;52.738;8.316;2023-04-25T07:55:14;3.60;;;1.27;;
6185;SDS011;3126;52.738;8.316;2023-04-25T08:00:15;4.93;;;1.38;;
6185;SDS011;3126;52.738;8.316;2023-04-25T08:05:16;11.32;;;1.40;;
6185;SDS011;3126;52.738;8.316;2023-04-25T08:10:17;5.55;;;1.50;;
6185;SDS011;3126;52.738;8.316;2023-04-25T08:15:18;4.32;;;1.10;;
6185;SDS011;3126;52.738;8.316;2023-04-25T08:20:19;2.22;;;0.60;;
6185;SDS011;3126;52.738;8.316;2023-04-25T08:25:20;5.65;;;1.20;;
6185;SDS011;3126;52.738;8.316;2023-04-25T08:30:21;1.42;;;0.85;;
6185;SDS011;3126;52.738;8.316;2023-04-25T08:35:22;6.35;;;1.48;;
6185;SDS011;3126;52.738;8.316;2023-04-25T08:40:23;5.50;;;1.15;;
6185;SDS011;3126;52.738;8.316;2023-04-25T08:45:30;2.08;;;0.60;;
6185;SDS011;3126;52.738;8.316;2023-04-25T08:50:32;6.63;;;1.50;;
6185;SDS011;3126;52.738;8.316;2023-04-25T08:55:33;3.95;;;1.38;;
6185;SDS011;3126;52.738;8.316;2023-04-25T09:00:34;5.10;;;1.90;;
6185;SDS011;3126;52.738;8.316;2023-04-25T09:05:35;5.40;;;2.05;;
6185;SDS011;3126;52.738;8.316;2023-04-25T09:10:37;1.35;;;0.95;;
6185;SDS011;3126;52.738;8.316;2023-04-25T09:15:48;5.10;;;1.38;;
6185;SDS011;3126;52.738;8.316;2023-04-25T09:20:49;3.28;;;1.10;;
6185;SDS011;3126;52.738;8.316;2023-04-25T09:25:52;3.53;;;0.82;;
6185;SDS011;3126;52.738;8.316;2023-04-25T09:30:54;1.25;;;0.82;;
6185;SDS011;3126;52.738;8.316;2023-04-25T09:36:06;3.83;;;1.38;;
6185;SDS011;3126;52.738;8.316;2023-04-25T09:41:07;2.17;;;1.83;;
6185;SDS011;3126;52.738;8.316;2023-04-25T09:46:09;2.90;;;1.05;;
6185;SDS011;3126;52.738;8.316;2023-04-25T09:51:14;4.78;;;0.82;;
6185;SDS011;3126;52.738;8.316;2023-04-25T09:56:15;1.08;;;0.77;;
6185;SDS011;3126;52.738;8.316;2023-04-25T10:01:16;1.55;;;0.63;;
6185;SDS011;3126;52.738;8.316;2023-04-25T10:06:18;2.15;;;0.77;;
6185;SDS011;3126;52.738;8.316;2023-04-25T10:11:20;2.22;;;0.80;;
6185;SDS011;3126;52.738;8.316;2023-04-25T10:16:23;4.88;;;1.15;;
6185;SDS011;3126;52.738;8.316;2023-04-25T10:21:25;2.75;;;1.60;;
6185;SDS011;3126;52.738;8.316;2023-04-25T10:26:28;2.60;;;0.90;;
6185;SDS011;3126;52.738;8.316;2023-04-25T10:31:30;2.42;;;0.95;;
6185;SDS011;3126;52.738;8.316;2023-04-25T10:36:31;1.02;;;1.02;;
6185;SDS011;3126;52.738;8.316;2023-04-25T10:41:35;3.50;;;0.60;;
6185;SDS011;3126;52.738;8.316;2023-04-25T10:46:45;3.28;;;1.50;;
6185;SDS011;3126;52.738;8.316;2023-04-25T10:51:46;2.30;;;0.98;;
6185;SDS011;3126;52.738;8.316;2023-04-25T10:56:48;5.32;;;1.50;;
6185;SDS011;3126;52.738;8.316;2023-04-25T11:01:51;2.80;;;0.90;;
6185;SDS011;3126;52.738;8.316;2023-04-25T11:12:07;7.55;;;1.40;;
6185;SDS011;3126;52.738;8.316;2023-04-25T11:17:08;8.50;;;1.83;;
6185;SDS011;3126;52.738;8.316;2023-04-25T11:22:11;2.50;;;0.90;;
6185;SDS011;3126;52.738;8.316;2023-04-25T11:27:12;4.25;;;1.00;;
6185;SDS011;3126;52.738;8.316;2023-04-25T11:32:16;3.22;;;0.85;;
6185;SDS011;3126;52.738;8.316;2023-04-25T11:37:18;4.75;;;1.23;;
6185;SDS011;3126;52.738;8.316;2023-04-25T11:42:18;3.60;;;0.88;;
6185;SDS011;3126;52.738;8.316;2023-04-25T11:47:20;5.53;;;1.30;;
6185;SDS011;3126;52.738;8.316;2023-04-25T11:52:21;5.25;;;1.45;;
6185;SDS011;3126;52.738;8.316;2023-04-25T11:57:21;5.10;;;1.80;;
6185;SDS011;3126;52.738;8.316;2023-04-25T12:02:26;3.63;;;1.25;;
6185;SDS011;3126;52.738;8.316;2023-04-25T12:07:30;2.47;;;0.70;;
6185;SDS011;3126;52.738;8.316;2023-04-25T12:12:34;2.53;;;0.90;;
6185;SDS011;3126;52.738;8.316;2023-04-25T12:17:35;3.08;;;0.82;;
6185;SDS011;3126;52.738;8.316;2023-04-25T12:22:37;1.35;;;0.80;;
6185;SDS011;3126;52.738;8.316;2023-04-25T12:27:38;1.33;;;0.77;;
6185;SDS011;3126;52.738;8.316;2023-04-25T12:32:41;2.15;;;0.70;;
6185;SDS011;3126;52.738;8.316;2023-04-25T12:37:42;1.58;;;0.77;;
6185;SDS011;3126;52.738;8.316;2023-04-25T12:42:43;4.90;;;0.88;;
6185;SDS011;3126;52.738;8.316;2023-04-25T12:47:44;3.63;;;1.27;;
6185;SDS011;3126;52.738;8.316;2023-04-25T12:52:45;2.53;;;0.80;;
6185;SDS011;3126;52.738;8.316;2023-04-25T12:57:46;5.13;;;2.70;;
6185;SDS011;3126;52.738;8.316;2023-04-25T13:02:47;6.07;;;1.92;;
6185;SDS011;3126;52.738;8.316;2023-04-25T13:07:48;2.90;;;1.63;;
6185;SDS011;3126;52.738;8.316;2023-04-25T13:12:49;5.53;;;2.03;;
6185;SDS011;3126;52.738;8.316;2023-04-25T13:17:50;5.30;;;1.92;;
6185;SDS011;3126;52.738;8.316;2023-04-25T13:22:51;5.32;;;1.25;;
6185;SDS011;3126;52.738;8.316;2023-04-25T13:27:52;3.60;;;1.20;;
6185;SDS011;3126;52.738;8.316;2023-04-25T13:32:53;1.25;;;0.82;;
6185;SDS011;3126;52.738;8.316;2023-04-25T13:37:56;5.05;;;1.52;;
6185;SDS011;3126;52.738;8.316;2023-04-25T13:42:57;2.85;;;1.30;;
6185;SDS011;3126;52.738;8.316;2023-04-25T13:47:59;0.82;;;0.82;;
6185;SDS011;3126;52.738;8.316;2023-04-25T13:53:00;2.35;;;0.82;;
6185;SDS011;3126;52.738;8.316;2023-04-25T13:58:01;2.88;;;0.80;;
6185;SDS011;3126;52.738;8.316;2023-04-25T14:03:07;1.42;;;0.80;;
6185;SDS011;3126;52.738;8.316;2023-04-25T14:08:08;2.88;;;1.35;;
6185;SDS011;3126;52.738;8.316;2023-04-25T14:13:10;4.18;;;1.30;;
6185;SDS011;3126;52.738;8.316;2023-04-25T14:18:11;3.78;;;1.45;;
6185;SDS011;3126;52.738;8.316;2023-04-25T14:23:12;2.47;;;0.88;;
6185;SDS011;3126;52.738;8.316;2023-04-25T14:28:13;3.95;;;1.50;;
6185;SDS011;3126;52.738;8.316;2023-04-25T14:33:14;2.72;;;2.13;;
6185;SDS011;3126;52.738;8.316;2023-04-25T14:38:15;5.45;;;1.98;;
6185;SDS011;3126;52.738;8.316;2023-04-25T14:43:16;5.57;;;1.10;;
6185;SDS011;3126;52.738;8.316;2023-04-25T14:48:17;7.25;;;1.42;;
6185;SDS011;3126;52.738;8.316;2023-04-25T14:53:19;1.50;;;0.90;;
6185;SDS011;3126;52.738;8.316;2023-04-25T14:58:20;1.50;;;1.08;;
6185;SDS011;3126;52.738;8.316;2023-04-25T15:03:21;3.95;;;1.35;;
6185;SDS011;3126;52.738;8.316;2023-04-25T15:08:22;3.85;;;1.17;;
6185;SDS011;3126;52.738;8.316;2023-04-25T15:13:23;1.83;;;0.98;;
6185;SDS011;3126;52.738;8.316;2023-04-25T15:18:25;5.20;;;2.40;;
6185;SDS011;3126;52.738;8.316;2023-04-25T15:23:26;5.53;;;1.38;;
6185;SDS011;3126;52.738;8.316;2023-04-25T15:28:27;2.67;;;0.90;;
6185;SDS011;3126;52.738;8.316;2023-04-25T15:33:28;2.83;;;1.02;;
6185;SDS011;3126;52.738;8.316;2023-04-25T15:38:29;2.35;;;1.50;;
6185;SDS011;3126;52.738;8.316;2023-04-25T15:43:30;6.45;;;1.35;;
6185;SDS011;3126;52.738;8.316;2023-04-25T15:48:32;2.67;;;1.05;;
6185;SDS011;3126;52.738;8.316;2023-04-25T15:53:33;2.72;;;1.10;;
6185;SDS011;3126;52.738;8.316;2023-04-25T15:58:34;1.55;;;0.80;;
6185;SDS011;3126;52.738;8.316;2023-04-25T16:03:35;4.20;;;1.38;;
6185;SDS011;3126;52.738;8.316;2023-04-25T16:08:36;2.72;;;0.40;;
6185;SDS011;3126;52.738;8.316;2023-04-25T16:13:37;0.68;;;0.47;;
6185;SDS011;3126;52.738;8.316;2023-04-25T16:18:38;3.08;;;1.05;;
6185;SDS011;3126;52.738;8.316;2023-04-25T16:23:39;2.03;;;0.90;;
6185;SDS011;3126;52.738;8.316;2023-04-25T16:28:40;5.07;;;1.50;;
6185;SDS011;3126;52.738;8.316;2023-04-25T16:33:41;1.25;;;0.63;;
6185;SDS011;3126;52.738;8.316;2023-04-25T16:38:42;1.65;;;0.80;;
6185;SDS011;3126;52.738;8.316;2023-04-25T16:43:43;4.80;;;1.38;;
6185;SDS011;3126;52.738;8.316;2023-04-25T16:48:44;6.50;;;1.33;;
6185;SDS011;3126;52.738;8.316;2023-04-25T16:53:47;3.00;;;1.27;;
6185;SDS011;3126;52.738;8.316;2023-04-25T16:58:47;3.08;;;0.80;;
6185;SDS011;3126;52.738;8.316;2023-04-25T17:03:49;3.42;;;1.13;;
6185;SDS011;3126;52.738;8.316;2023-04-25T17:08:50;2.17;;;0.80;;
6185;SDS011;3126;52.738;8.316;2023-04-25T17:13:51;2.28;;;1.05;;
6185;SDS011;3126;52.738;8.316;2023-04-25T17:18:52;4.63;;;1.27;;
6185;SDS011;3126;52.738;8.316;2023-04-25T17:23:53;4.50;;;1.33;;
6185;SDS011;3126;52.738;8.316;2023-04-25T17:28:54;8.45;;;1.77;;
6185;SDS011;3126;52.738;8.316;2023-04-25T17:33:55;4.63;;;0.85;;
6185;SDS011;3126;52.738;8.316;2023-04-25T17:38:56;8.82;;;1.27;;
6185;SDS011;3126;52.738;8.316;2023-04-25T17:43:57;5.90;;;1.10;;
6185;SDS011;3126;52.738;8.316;2023-04-25T17:48:58;3.25;;;1.65;;
6185;SDS011;3126;52.738;8.316;2023-04-25T17:54:00;6.40;;;1.02;;
6185;SDS011;3126;52.738;8.316;2023-04-25T17:59:01;1.85;;;1.17;;
6185;SDS011;3126;52.738;8.316;2023-04-25T18:04:02;4.22;;;1.42;;
6185;SDS011;3126;52.738;8.316;2023-04-25T18:09:03;3.40;;;1.20;;
6185;SDS011;3126;52.738;8.316;2023-04-25T18:14:14;4.97;;;1.08;;
6185;SDS011;3126;52.738;8.316;2023-04-25T18:19:16;3.20;;;0.98;;
6185;SDS011;3126;52.738;8.316;2023-04-25T18:24:21;4.22;;;1.10;;
6185;SDS011;3126;52.738;8.316;2023-04-25T18:29:23;3.05;;;1.10;;
6185;SDS011;3126;52.738;8.316;2023-04-25T18:34:24;4.05;;;1.27;;
6185;SDS011;3126;52.738;8.316;2023-04-25T18:39:25;4.80;;;1.00;;
6185;SDS011;3126;52.738;8.316;2023-04-25T18:44:26;6.70;;;1.70;;
6185;SDS011;3126;52.738;8.316;2023-04-25T18:49:27;4.25;;;1.23;;
6185;SDS011;3126;52.738;8.316;2023-04-25T18:54:28;4.32;;;1.38;;
6185;SDS011;3126;52.738;8.316;2023-04-25T18:59:31;4.35;;;0.90;;
6185;SDS011;3126;52.738;8.316;2023-04-25T19:04:32;5.13;;;1.98;;
6185;SDS011;3126;52.738;8.316;2023-04-25T19:09:34;4.43;;;1.25;;
6185;SDS011;3126;52.738;8.316;2023-04-25T19:14:35;6.00;;;2.00;;
6185;SDS011;3126;52.738;8.316;2023-04-25T19:19:36;8.30;;;2.80;;
6185;SDS011;3126;52.738;8.316;2023-04-25T19:24:37;7.22;;;2.28;;
6185;SDS011;3126;52.738;8.316;2023-04-25T19:29:38;9.88;;;2.28;;
6185;SDS011;3126;52.738;8.316;2023-04-25T19:34:44;4.43;;;1.58;;
6185;SDS011;3126;52.738;8.316;2023-04-25T19:39:45;4.07;;;1.17;;
6185;SDS011;3126;52.738;8.316;2023-04-25T19:44:46;3.63;;;1.80;;
6185;SDS011;3126;52.738;8.316;2023-04-25T19:49:47;2.67;;;1.90;;
6185;SDS011;3126;52.738;8.316;2023-04-25T19:54:49;5.97;;;1.95;;
6185;SDS011;3126;52.738;8.316;2023-04-25T19:59:50;4.05;;;1.35;;
6185;SDS011;3126;52.738;8.316;2023-04-25T20:04:51;7.68;;;1.55;;
6185;SDS011;3126;52.738;8.316;2023-04-25T20:09:52;4.55;;;1.50;;
6185;SDS011;3126;52.738;8.316;2023-04-25T20:14:52;4.95;;;1.90;;
6185;SDS011;3126;52.738;8.316;2023-04-25T20:19:53;3.45;;;1.63;;
6185;SDS011;3126;52.738;8.316;2023-04-25T20:24:55;3.70;;;1.40;;
6185;SDS011;3126;52.738;8.316;2023-04-25T20:29:56;3.13;;;1.05;;
6185;SDS011;3126;52.738;8.316;2023-04-25T20:35:02;3.72;;;1.35;;
6185;SDS011;3126;52.738;8.316;2023-04-25T20:40:04;2.70;;;2.00;;
6185;SDS011;3126;52.738;8.316;2023-04-25T20:45:06;10.15;;;2.35;;
6185;SDS011;3126;52.738;8.316;2023-04-25T20:50:12;9.27;;;1.50;;
6185;SDS011;3126;52.738;8.316;2023-04-25T20:55:13;7.50;;;2.15;;
6185;SDS011;3126;52.738;8.316;2023-04-25T21:00:14;5.15;;;2.55;;
6185;SDS011;3126;52.738;8.316;2023-04-25T21:05:25;7.13;;;2.50;;
6185;SDS011;3126;52.738;8.316;2023-04-25T21:10:26;4.30;;;2.03;;
6185;SDS011;3126;52.738;8.316;2023-04-25T21:15:27;2.95;;;1.67;;
6185;SDS011;3126;52.738;8.316;2023-04-25T21:20:28;2.90;;;1.63;;
6185;SDS011;3126;52.738;8.316;2023-04-25T21:25:29;4.68;;;1.77;;
6185;SDS011;3126;52.738;8.316;2023-04-25T21:30:30;4.55;;;2.00;;
6185;SDS011;3126;52.738;8.316;2023-04-25T21:35:31;5.30;;;1.83;;
6185;SDS011;3126;52.738;8.316;2023-04-25T21:40:33;7.93;;;2.00;;
6185;SDS011;3126;52.738;8.316;2023-04-25T21:45:34;6.05;;;1.75;;
6185;SDS011;3126;52.738;8.316;2023-04-25T21:50:35;4.35;;;1.67;;
6185;SDS011;3126;52.738;8.316;2023-04-25T21:55:37;4.72;;;1.98;;
6185;SDS011;3126;52.738;8.316;2023-04-25T22:00:37;5.90;;;1.90;;
6185;SDS011;3126;52.738;8.316;2023-04-25T22:05:38;7.95;;;2.20;;
6185;SDS011;3126;52.738;8.316;2023-04-25T22:10:39;4.88;;;2.05;;
6185;SDS011;3126;52.738;8.316;2023-04-25T22:15:41;6.18;;;2.30;;
6185;SDS011;3126;52.738;8.316;2023-04-25T22:20:42;6.32;;;2.30;;
6185;SDS011;3126;52.738;8.316;2023-04-25T22:25:43;4.78;;;1.88;;
6185;SDS011;3126;52.738;8.316;2023-04-25T22:30:46;7.75;;;2.67;;
6185;SDS011;3126;52.738;8.316;2023-04-25T22:35:47;4.57;;;2.17;;
6185;SDS011;3126;52.738;8.316;2023-04-25T22:40:48;5.00;;;2.50;;
6185;SDS011;3126;52.738;8.316;2023-04-25T22:45:49;8.65;;;3.30;;
6185;SDS011;3126;52.738;8.316;2023-04-25T22:50:59;5.18;;;1.70;;
6185;SDS011;3126;52.738;8.316;2023-04-25T22:56:01;5.88;;;2.10;;
6185;SDS011;3126;52.738;8.316;2023-04-25T23:01:02;8.10;;;2.55;;
6185;SDS011;3126;52.738;8.316;2023-04-25T23:06:05;4.40;;;1.77;;
6185;SDS011;3126;52.738;8.316;2023-04-25T23:11:07;9.40;;;2.83;;
6185;SDS011;3126;52.738;8.316;2023-04-25T23:16:08;7.68;;;2.17;;
6185;SDS011;3126;52.738;8.316;2023-04-25T23:21:09;4.88;;;2.75;;
6185;SDS011;3126;52.738;8.316;2023-04-25T23:26:11;4.55;;;2.63;;
6185;SDS011;3126;52.738;8.316;2023-04-25T23:31:12;8.20;;;3.25;;
6185;SDS011;3126;52.738;8.316;2023-04-25T23:36:16;2.58;;;2.10;;
6185;SDS011;3126;52.738;8.316;2023-04-25T23:41:20;7.60;;;2.13;;
6185;SDS011;3126;52.738;8.316;2023-04-25T23:46:22;5.80;;;2.72;;
6185;SDS011;3126;52.738;8.316;2023-04-25T23:51:23;8.27;;;3.10;;
6185;SDS011;3126;52.738;8.316;2023-04-25T23:56:25;7.38;;;2.08;;
